Time;durP1;ratioP1;P1;durP2;ratioP2;P2;SDS_P1;SDS_P2;PMS_P1;PMS_P2;Temp;Humidity;BMP_temperature;BMP_pressure;BME280_temperature;BME280_humidity;BME280_pressure;Samples;Min_cycle;Max_cycle;Signal;HPM_P1;HPM_P2
2022/08/16 00:02:08;;;;;;;6.13;4.43;;;24.40;99.90;;;;;;5010610;28;20295;-74
2022/08/16 00:04:35;;;;;;;5.97;3.77;;;24.40;99.90;;;;;;5024505;28;20222;-75
2022/08/16 00:07:02;;;;;;;7.97;4.33;;;24.40;99.90;;;;;;5013956;28;20264;-76
2022/08/16 00:09:29;;;;;;;8.63;4.30;;;24.40;99.90;;;;;;5018080;28;20243;-76
2022/08/16 00:11:58;;;;;;;6.50;4.23;;;24.30;99.90;;;;;;5033711;28;20607;-75
2022/08/16 00:14:29;;;;;;;7.40;4.00;;;24.30;99.90;;;;;;5033099;28;20251;-75
2022/08/16 00:16:56;;;;;;;6.03;3.77;;;24.30;99.90;;;;;;5033830;28;20302;-75
2022/08/16 00:19:25;;;;;;;7.67;4.20;;;24.30;99.90;;;;;;5033932;28;20303;-74
2022/08/16 00:21:53;;;;;;;7.73;4.10;;;24.30;99.90;;;;;;5023771;28;20202;-75
2022/08/16 00:24:22;;;;;;;5.50;3.70;;;24.30;99.90;;;;;;5014236;28;20281;-76
2022/08/16 00:26:49;;;;;;;6.37;3.93;;;24.30;99.90;;;;;;5014540;28;20244;-75
2022/08/16 00:29:17;;;;;;;7.03;4.10;;;24.30;99.90;;;;;;5013330;28;20559;-75
2022/08/16 00:31:47;;;;;;;7.63;4.20;;;24.30;99.90;;;;;;5013703;28;20301;-75
2022/08/16 00:34:15;;;;;;;8.40;4.10;;;24.30;99.90;;;;;;5014055;28;20748;-74
2022/08/16 00:36:45;;;;;;;8.57;4.10;;;24.30;99.90;;;;;;5013243;28;20333;-74
2022/08/16 00:39:12;;;;;;;5.90;4.00;;;24.30;99.90;;;;;;5013469;28;20294;-75
2022/08/16 00:41:39;;;;;;;8.80;4.03;;;24.20;99.90;;;;;;5013308;28;20210;-75
2022/08/16 00:44:09;;;;;;;12.00;4.33;;;24.20;99.90;;;;;;5011614;28;20226;-74
2022/08/16 00:46:45;;;;;;;6.43;3.77;;;24.20;99.90;;;;;;5013285;28;20261;-74
2022/08/16 00:49:14;;;;;;;7.50;3.80;;;24.20;99.90;;;;;;5012782;28;20243;-74
2022/08/16 00:51:41;;;;;;;9.60;4.07;;;24.30;99.90;;;;;;5012930;28;20248;-74
2022/08/16 00:54:08;;;;;;;8.63;4.10;;;24.30;99.90;;;;;;5012598;28;20258;-74
2022/08/16 00:56:39;;;;;;;6.17;3.80;;;24.40;99.90;;;;;;4993376;28;20205;-75
2022/08/16 00:59:08;;;;;;;11.23;4.17;;;24.40;99.90;;;;;;4993645;28;20288;-75
2022/08/16 01:01:35;;;;;;;9.67;4.00;;;24.50;99.90;;;;;;4993496;28;20299;-75
2022/08/16 01:04:06;;;;;;;12.47;4.63;;;24.50;99.90;;;;;;5005067;28;20228;-74
2022/08/16 01:06:33;;;;;;;6.17;3.73;;;24.60;99.90;;;;;;5017527;28;20202;-74
2022/08/16 01:09:04;;;;;;;7.23;3.80;;;24.70;99.90;;;;;;5017199;28;20234;-75
2022/08/16 01:11:33;;;;;;;7.73;4.20;;;24.70;99.90;;;;;;5017228;28;20581;-74
2022/08/16 01:14:09;;;;;;;13.23;3.75;;;24.70;99.90;;;;;;5016588;28;20205;-74
2022/08/16 01:16:36;;;;;;;11.07;4.07;;;24.80;99.90;;;;;;5016832;28;20189;-75
2022/08/16 01:19:14;;;;;;;11.20;4.13;;;24.80;99.90;;;;;;5017551;28;20276;-74
2022/08/16 01:21:47;;;;;;;6.27;3.90;;;24.80;99.90;;;;;;5017582;28;20693;-74
2022/08/16 01:24:21;;;;;;;8.23;4.10;;;24.80;99.90;;;;;;5016952;28;20224;-76
2022/08/16 01:26:51;;;;;;;10.20;4.50;;;24.80;99.90;;;;;;5016692;28;20308;-74
2022/08/16 01:29:23;;;;;;;8.70;3.77;;;24.80;99.90;;;;;;5017031;28;20212;-77
2022/08/16 01:31:51;;;;;;;9.07;4.30;;;24.80;99.90;;;;;;5016564;28;20310;-75
2022/08/16 01:34:19;;;;;;;8.37;4.10;;;24.70;99.90;;;;;;5016103;28;20239;-74
2022/08/16 01:36:46;;;;;;;9.63;4.17;;;24.70;99.90;;;;;;5016398;28;20316;-74
2022/08/16 01:39:17;;;;;;;9.23;3.80;;;24.70;99.90;;;;;;5017290;28;20237;-75
2022/08/16 01:41:45;;;;;;;9.07;4.27;;;24.60;99.90;;;;;;5016969;28;20191;-75
2022/08/16 01:44:12;;;;;;;7.40;4.60;;;24.60;99.90;;;;;;5016178;28;20229;-74
2022/08/16 01:46:42;;;;;;;13.27;4.40;;;24.50;99.90;;;;;;5016788;28;20224;-74
2022/08/16 01:49:12;;;;;;;10.80;4.40;;;24.50;99.90;;;;;;5015330;28;20644;-74
2022/08/16 01:51:41;;;;;;;7.33;4.37;;;24.40;99.90;;;;;;5016522;28;20220;-74
2022/08/16 01:54:08;;;;;;;8.60;4.63;;;24.40;99.90;;;;;;5016368;28;20293;-74
2022/08/16 01:56:36;;;;;;;11.83;4.40;;;24.30;99.90;;;;;;5016499;28;20233;-75
2022/08/16 01:59:07;;;;;;;8.10;4.30;;;24.30;99.90;;;;;;5016633;28;20310;-76
2022/08/16 02:01:35;;;;;;;8.43;4.70;;;24.30;99.90;;;;;;5016349;28;20281;-74
2022/08/16 02:04:03;;;;;;;9.47;4.50;;;24.30;99.90;;;;;;5015166;28;20211;-74
2022/08/16 02:06:30;;;;;;;8.43;4.77;;;24.20;99.90;;;;;;5016001;28;20247;-75
2022/08/16 02:08:58;;;;;;;10.47;4.70;;;24.10;99.90;;;;;;5016706;28;20728;-75
2022/08/16 02:11:25;;;;;;;5.70;4.03;;;24.10;99.90;;;;;;5016000;28;20206;-73
2022/08/16 02:13:54;;;;;;;7.73;4.43;;;24.00;99.90;;;;;;5011073;28;20206;-74
2022/08/16 02:16:21;;;;;;;7.17;4.07;;;24.00;99.90;;;;;;5015501;28;20202;-74
2022/08/16 02:18:48;;;;;;;9.57;5.33;;;23.90;99.90;;;;;;5015391;28;20231;-75
2022/08/16 02:21:16;;;;;;;9.77;4.67;;;23.90;99.90;;;;;;5014976;28;20290;-74
2022/08/16 02:23:43;;;;;;;10.03;4.70;;;23.80;99.90;;;;;;5015255;28;20645;-74
2022/08/16 02:26:10;;;;;;;8.10;4.63;;;23.70;99.90;;;;;;5015705;28;20319;-75
2022/08/16 02:28:37;;;;;;;12.90;5.20;;;23.60;99.90;;;;;;5014907;28;20300;-74
2022/08/16 02:31:09;;;;;;;8.50;4.63;;;23.60;99.90;;;;;;5015936;28;20209;-76
2022/08/16 02:33:37;;;;;;;8.50;5.00;;;23.50;99.90;;;;;;5016050;28;20196;-75
2022/08/16 02:36:05;;;;;;;10.87;4.80;;;23.40;99.90;;;;;;5015596;28;20614;-75
2022/08/16 02:38:32;;;;;;;10.17;5.10;;;23.30;99.90;;;;;;5015686;28;20293;-74
2022/08/16 02:41:01;;;;;;;7.87;4.70;;;23.30;99.90;;;;;;5014194;28;20212;-73
2022/08/16 02:43:30;;;;;;;10.07;5.20;;;23.20;99.90;;;;;;5014699;28;20212;-74
2022/08/16 02:45:57;;;;;;;6.50;4.43;;;23.10;99.90;;;;;;5016734;28;20244;-75
2022/08/16 02:48:27;;;;;;;11.83;5.00;;;23.10;99.90;;;;;;5016425;28;20254;-76
2022/08/16 02:50:56;;;;;;;8.60;4.60;;;23.10;99.90;;;;;;5014167;28;20287;-75
2022/08/16 02:53:24;;;;;;;8.60;4.67;;;23.00;99.90;;;;;;5015274;28;20243;-75
2022/08/16 02:55:52;;;;;;;9.93;5.23;;;23.00;99.90;;;;;;5015750;28;20618;-74
2022/08/16 02:58:19;;;;;;;7.37;4.40;;;22.90;99.90;;;;;;5015098;28;20572;-75
2022/08/16 03:00:46;;;;;;;7.23;4.80;;;22.90;99.90;;;;;;5014573;28;20297;-76
2022/08/16 03:03:13;;;;;;;9.93;4.77;;;22.90;99.90;;;;;;5015238;28;20712;-74
2022/08/16 03:05:41;;;;;;;12.77;5.13;;;22.80;99.90;;;;;;5013235;28;20309;-75
2022/08/16 03:08:09;;;;;;;7.60;4.20;;;22.80;99.90;;;;;;5014824;28;20266;-74
2022/08/16 03:10:36;;;;;;;7.53;5.00;;;22.80;99.90;;;;;;5014162;28;20559;-75
2022/08/16 03:13:04;;;;;;;7.47;4.30;;;22.80;99.90;;;;;;5013834;28;20214;-74
2022/08/16 03:15:31;;;;;;;7.43;4.67;;;22.80;99.90;;;;;;5014534;28;20315;-75
2022/08/16 03:17:58;;;;;;;7.80;4.97;;;22.80;99.90;;;;;;5014063;28;20207;-74
2022/08/16 03:20:25;;;;;;;8.50;4.53;;;22.80;99.90;;;;;;5014249;28;20302;-77
2022/08/16 03:22:54;;;;;;;8.67;4.73;;;22.80;99.90;;;;;;5014340;28;20294;-74
2022/08/16 03:25:21;;;;;;;9.70;4.97;;;22.70;99.90;;;;;;5013745;28;20230;-75
2022/08/16 03:27:48;;;;;;;12.27;5.23;;;22.70;99.90;;;;;;5015107;28;20610;-75
2022/08/16 03:30:17;;;;;;;13.63;5.00;;;22.70;99.90;;;;;;5014259;28;20297;-74
2022/08/16 03:32:45;;;;;;;9.23;4.83;;;22.70;99.90;;;;;;5012071;28;20286;-75
2022/08/16 03:35:12;;;;;;;6.50;4.97;;;22.70;99.90;;;;;;5014964;28;20643;-74
2022/08/16 03:37:42;;;;;;;10.13;5.00;;;22.60;99.90;;;;;;5012911;28;20240;-75
2022/08/16 03:40:12;;;;;;;9.37;5.20;;;22.70;99.90;;;;;;5003819;28;20203;-76
2022/08/16 03:42:39;;;;;;;9.43;5.20;;;22.60;99.90;;;;;;5005464;28;20603;-76
2022/08/16 03:45:07;;;;;;;13.10;5.00;;;22.70;99.90;;;;;;5003475;28;20621;-75
2022/08/16 03:47:35;;;;;;;6.97;5.00;;;22.70;99.90;;;;;;4999019;28;20673;-77
2022/08/16 03:50:02;;;;;;;11.40;5.10;;;22.70;99.90;;;;;;5011656;28;20295;-75
2022/08/16 03:52:30;;;;;;;10.93;5.23;;;22.70;99.90;;;;;;5013452;28;20205;-76
2022/08/16 03:54:56;;;;;;;9.33;4.63;;;22.70;99.90;;;;;;5009061;28;20813;-74
2022/08/16 03:57:25;;;;;;;9.80;5.03;;;22.70;99.90;;;;;;5003385;28;20293;-74
2022/08/16 03:59:52;;;;;;;11.53;5.17;;;22.70;99.90;;;;;;5004855;28;20235;-75
2022/08/16 04:02:20;;;;;;;7.97;5.00;;;22.70;99.90;;;;;;5007645;28;20208;-75
2022/08/16 04:04:47;;;;;;;10.07;5.03;;;22.70;99.90;;;;;;5012312;28;20300;-75
2022/08/16 04:07:15;;;;;;;7.07;4.90;;;22.70;99.90;;;;;;5013969;28;20218;-75
2022/08/16 04:09:42;;;;;;;10.27;5.07;;;22.70;99.90;;;;;;5016200;28;20206;-76
2022/08/16 04:12:11;;;;;;;11.17;5.60;;;22.80;99.90;;;;;;5013219;28;20298;-75
2022/08/16 04:14:39;;;;;;;10.07;5.40;;;22.80;99.90;;;;;;5013326;28;20219;-73
2022/08/16 04:17:06;;;;;;;7.50;5.00;;;22.80;99.90;;;;;;5005124;28;20268;-75
2022/08/16 04:19:34;;;;;;;6.80;4.70;;;22.80;99.90;;;;;;5010829;28;20203;-75
2022/08/16 04:22:01;;;;;;;8.40;4.97;;;22.80;99.90;;;;;;5013438;28;20464;-75
2022/08/16 04:24:28;;;;;;;10.23;5.60;;;22.80;99.90;;;;;;5013168;28;20288;-77
2022/08/16 04:26:55;;;;;;;9.17;5.33;;;22.80;99.90;;;;;;5013298;28;20282;-75
2022/08/16 04:29:22;;;;;;;14.37;5.20;;;22.80;99.90;;;;;;5013798;28;20388;-77
2022/08/16 04:31:51;;;;;;;10.43;5.60;;;22.80;99.90;;;;;;5012417;28;20281;-76
2022/08/16 04:34:18;;;;;;;10.23;5.13;;;22.90;99.90;;;;;;5012209;28;20238;-75
2022/08/16 04:36:45;;;;;;;10.63;5.67;;;22.90;99.90;;;;;;5015569;28;20700;-75
2022/08/16 04:39:12;;;;;;;12.50;5.40;;;22.90;99.90;;;;;;5016712;28;20238;-76
2022/08/16 04:41:39;;;;;;;9.60;5.33;;;23.00;99.90;;;;;;5014471;28;20203;-76
2022/08/16 04:44:06;;;;;;;12.03;5.03;;;23.00;99.90;;;;;;5004128;28;20208;-76
2022/08/16 04:46:33;;;;;;;11.70;5.43;;;23.00;99.90;;;;;;5006071;28;20255;-75
2022/08/16 04:49:01;;;;;;;17.47;5.70;;;23.00;99.90;;;;;;5003784;28;20195;-74
2022/08/16 04:51:28;;;;;;;10.70;5.73;;;23.00;99.90;;;;;;5014034;28;20311;-75
2022/08/16 04:53:55;;;;;;;12.63;5.63;;;23.00;99.90;;;;;;5013960;28;20309;-77
2022/08/16 04:56:22;;;;;;;11.13;5.93;;;23.00;99.90;;;;;;5012089;28;20207;-77
2022/08/16 04:58:49;;;;;;;9.30;5.10;;;23.10;99.90;;;;;;5001989;28;20236;-76
2022/08/16 05:01:16;;;;;;;9.20;5.30;;;23.10;99.90;;;;;;5013022;28;20257;-76
2022/08/16 05:03:43;;;;;;;13.43;5.47;;;23.20;99.90;;;;;;5003592;28;20201;-77
2022/08/16 05:06:12;;;;;;;13.13;6.00;;;23.10;99.90;;;;;;5016065;28;20649;-74
2022/08/16 05:08:39;;;;;;;12.20;5.67;;;23.20;99.90;;;;;;5018611;28;20202;-74
2022/08/16 05:11:08;;;;;;;9.30;5.27;;;23.20;99.90;;;;;;5016890;28;20235;-75
2022/08/16 05:13:38;;;;;;;13.33;5.70;;;23.20;99.90;;;;;;5010857;28;20696;-74
2022/08/16 05:16:08;;;;;;;10.73;5.93;;;23.20;99.90;;;;;;5015535;28;20201;-75
2022/08/16 05:18:36;;;;;;;8.47;5.57;;;23.20;99.90;;;;;;5015759;28;20226;-75
2022/08/16 05:21:03;;;;;;;10.83;5.47;;;23.20;99.90;;;;;;5014584;28;20212;-73
2022/08/16 05:23:31;;;;;;;11.87;5.37;;;23.10;99.90;;;;;;5009388;28;20568;-73
2022/08/16 05:25:59;;;;;;;9.83;6.20;;;23.10;99.90;;;;;;5011956;28;20224;-76
2022/08/16 05:28:26;;;;;;;10.93;6.33;;;23.10;99.90;;;;;;5012976;28;20231;-73
2022/08/16 05:30:53;;;;;;;11.27;6.37;;;23.20;99.90;;;;;;5003704;28;20262;-73
2022/08/16 05:33:21;;;;;;;12.67;7.00;;;23.20;99.90;;;;;;5011622;28;20275;-76
2022/08/16 05:35:49;;;;;;;9.30;5.80;;;23.20;99.90;;;;;;5004149;28;20199;-72
2022/08/16 05:38:17;;;;;;;8.53;5.63;;;23.20;99.90;;;;;;4999621;28;20325;-73
2022/08/16 05:40:45;;;;;;;12.43;5.90;;;23.30;99.90;;;;;;5012437;28;20205;-74
2022/08/16 05:43:12;;;;;;;11.40;5.37;;;23.30;99.90;;;;;;5017679;28;20202;-75
2022/08/16 05:45:39;;;;;;;11.10;5.33;;;23.30;99.90;;;;;;5016823;28;20320;-75
2022/08/16 05:48:06;;;;;;;11.50;5.83;;;23.40;99.90;;;;;;5015200;28;20301;-74
2022/08/16 05:50:33;;;;;;;14.10;5.80;;;23.40;99.90;;;;;;5016551;28;20303;-75
2022/08/16 05:53:00;;;;;;;10.67;6.30;;;23.40;99.90;;;;;;5017367;28;20189;-75
2022/08/16 05:55:26;;;;;;;11.27;5.90;;;23.40;99.90;;;;;;5017638;28;20318;-74
2022/08/16 05:57:55;;;;;;;13.73;6.03;;;23.40;99.90;;;;;;5022644;28;20304;-74
2022/08/16 06:00:22;;;;;;;10.37;5.73;;;23.30;99.90;;;;;;5018072;28;20209;-73
2022/08/16 06:02:49;;;;;;;12.57;6.53;;;23.30;99.90;;;;;;5014798;28;20692;-73
2022/08/16 06:05:16;;;;;;;15.17;10.33;;;23.40;99.90;;;;;;5016555;28;20734;-75
2022/08/16 06:07:43;;;;;;;13.57;8.23;;;23.40;99.90;;;;;;5015742;28;20218;-73
2022/08/16 06:10:12;;;;;;;10.37;5.73;;;23.40;99.90;;;;;;5018222;28;20290;-74
2022/08/16 06:12:40;;;;;;;10.27;6.03;;;23.50;99.90;;;;;;5016730;28;20300;-74
2022/08/16 06:15:11;;;;;;;10.83;5.77;;;23.50;99.90;;;;;;5017705;28;20260;-73
2022/08/16 06:17:39;;;;;;;15.20;5.87;;;23.60;99.90;;;;;;5018327;28;20186;-74
2022/08/16 06:20:07;;;;;;;14.03;6.50;;;23.70;99.90;;;;;;5016107;28;20750;-73
2022/08/16 06:22:37;;;;;;;11.23;6.00;;;23.70;99.90;;;;;;5016336;28;20206;-74
2022/08/16 06:25:05;;;;;;;9.90;5.50;;;23.70;99.90;;;;;;5016143;28;20237;-75
2022/08/16 06:27:32;;;;;;;12.13;5.80;;;23.70;99.90;;;;;;5016251;28;20758;-74
2022/08/16 06:29:59;;;;;;;11.40;5.80;;;23.60;99.90;;;;;;5016458;28;20671;-73
2022/08/16 06:32:27;;;;;;;10.60;6.33;;;23.60;99.90;;;;;;5014382;28;20299;-73
2022/08/16 06:34:54;;;;;;;10.00;5.60;;;23.60;99.90;;;;;;5016876;28;20272;-74
2022/08/16 06:37:21;;;;;;;12.07;6.40;;;23.50;99.90;;;;;;5016924;28;20592;-75
2022/08/16 06:39:48;;;;;;;14.90;6.10;;;23.50;99.90;;;;;;5017179;28;20217;-73
2022/08/16 06:42:15;;;;;;;16.20;7.57;;;23.40;99.90;;;;;;5019241;28;20244;-73
2022/08/16 06:44:42;;;;;;;13.77;7.90;;;23.30;99.90;;;;;;5016912;28;20308;-74
2022/08/16 06:47:09;;;;;;;26.37;8.03;;;23.10;99.90;;;;;;5015981;28;20651;-75
2022/08/16 06:49:37;;;;;;;19.33;8.47;;;22.90;99.90;;;;;;5017789;28;20249;-75
2022/08/16 06:52:04;;;;;;;23.83;10.27;;;22.50;99.90;;;;;;5018105;28;20242;-73
2022/08/16 06:54:33;;;;;;;19.90;9.70;;;21.80;99.90;;;;;;5017752;28;20234;-72
2022/08/16 06:57:00;;;;;;;17.33;8.37;;;21.00;99.90;;;;;;5017245;28;20202;-73
2022/08/16 06:59:27;;;;;;;19.80;8.90;;;20.60;99.90;;;;;;5017017;28;20211;-74
2022/08/16 07:01:54;;;;;;;17.63;8.60;;;20.30;99.90;;;;;;5018342;28;20211;-73
2022/08/16 07:04:21;;;;;;;15.90;8.40;;;20.30;99.90;;;;;;5017632;28;20605;-72
2022/08/16 07:06:49;;;;;;;13.97;9.10;;;20.20;99.90;;;;;;5006599;28;20320;-72
2022/08/16 07:09:16;;;;;;;16.60;8.47;;;20.30;99.90;;;;;;4997573;28;20219;-73
2022/08/16 07:11:43;;;;;;;15.77;8.50;;;20.40;99.90;;;;;;4997657;28;20302;-75
2022/08/16 07:14:11;;;;;;;15.13;8.37;;;20.50;99.90;;;;;;5004203;28;20213;-73
2022/08/16 07:16:40;;;;;;;14.93;9.23;;;20.60;99.90;;;;;;5019300;28;20213;-73
2022/08/16 07:19:08;;;;;;;16.10;9.27;;;20.70;99.90;;;;;;5017670;28;20606;-73
2022/08/16 07:21:35;;;;;;;14.30;9.57;;;20.70;99.90;;;;;;5017075;28;20248;-74
2022/08/16 07:24:06;;;;;;;16.40;9.53;;;20.70;99.90;;;;;;5018731;28;20215;-75
2022/08/16 07:26:33;;;;;;;16.90;9.43;;;20.70;99.90;;;;;;5018091;28;20619;-74
2022/08/16 07:29:00;;;;;;;17.77;9.40;;;20.70;99.90;;;;;;5017779;28;20633;-74
2022/08/16 07:31:27;;;;;;;16.47;9.37;;;20.70;99.90;;;;;;5019125;28;20265;-73
2022/08/16 07:33:54;;;;;;;15.87;8.43;;;20.70;99.90;;;;;;5018584;28;20267;-75
2022/08/16 07:36:22;;;;;;;17.60;8.67;;;20.80;99.90;;;;;;5015400;28;20208;-72
2022/08/16 07:38:49;;;;;;;14.13;8.03;;;20.80;99.90;;;;;;4978915;28;20619;-73
2022/08/16 07:41:17;;;;;;;14.17;7.70;;;20.80;99.90;;;;;;4978288;28;20275;-74
2022/08/16 07:43:44;;;;;;;15.53;8.40;;;20.80;99.90;;;;;;4978804;28;20303;-73
2022/08/16 07:46:12;;;;;;;13.20;7.03;;;20.90;99.90;;;;;;4978349;28;20322;-73
2022/08/16 07:48:38;;;;;;;11.97;6.27;;;20.90;99.90;;;;;;4977038;28;20217;-73
2022/08/16 07:51:06;;;;;;;9.90;6.47;;;21.00;99.90;;;;;;4977926;28;20547;-74
2022/08/16 07:53:34;;;;;;;13.47;7.00;;;21.00;99.90;;;;;;4978631;28;20633;-74
2022/08/16 07:56:01;;;;;;;11.40;6.97;;;21.00;99.90;;;;;;4976579;28;20207;-73
2022/08/16 07:58:30;;;;;;;15.00;7.63;;;20.80;99.90;;;;;;4977424;28;20213;-72
2022/08/16 08:00:58;;;;;;;17.17;9.33;;;20.80;99.90;;;;;;4974945;28;20214;-73
2022/08/16 08:03:25;;;;;;;17.90;8.10;;;20.60;99.90;;;;;;4975120;28;20242;-72
2022/08/16 08:05:52;;;;;;;15.57;7.27;;;20.50;99.90;;;;;;4979014;28;20278;-74
2022/08/16 08:08:19;;;;;;;16.60;7.50;;;20.40;99.90;;;;;;4979690;28;20241;-72
2022/08/16 08:10:45;;;;;;;16.47;7.53;;;20.40;99.90;;;;;;4978073;28;20726;-74
2022/08/16 08:13:14;;;;;;;13.17;6.80;;;20.30;99.90;;;;;;4979131;28;20301;-72
2022/08/16 08:15:44;;;;;;;13.33;6.87;;;20.20;99.90;;;;;;4977059;28;20590;-73
2022/08/16 08:18:11;;;;;;;13.70;6.90;;;20.20;99.90;;;;;;4977671;28;20243;-75
2022/08/16 08:20:43;;;;;;;13.23;6.80;;;20.20;99.90;;;;;;4978028;28;20208;-73
2022/08/16 08:23:12;;;;;;;9.37;6.53;;;20.20;99.90;;;;;;4976789;28;20196;-73
2022/08/16 08:25:39;;;;;;;15.20;6.77;;;20.30;99.90;;;;;;4977163;28;20236;-72
2022/08/16 08:28:06;;;;;;;13.40;7.83;;;20.30;99.90;;;;;;4976316;28;20311;-73
2022/08/16 08:30:34;;;;;;;11.93;6.33;;;20.30;99.90;;;;;;4973903;28;20290;-72
2022/08/16 08:33:02;;;;;;;11.73;6.27;;;20.30;99.90;;;;;;4976470;28;20257;-73
2022/08/16 08:35:31;;;;;;;9.27;5.77;;;20.30;99.90;;;;;;4976124;28;20215;-72
2022/08/16 08:37:58;;;;;;;12.43;5.53;;;20.20;99.90;;;;;;5001228;28;20237;-72
2022/08/16 08:40:27;;;;;;;9.27;5.07;;;20.30;99.90;;;;;;5016120;28;20775;-72
2022/08/16 08:42:56;;;;;;;13.00;5.40;;;20.30;99.90;;;;;;5016353;28;20265;-73
2022/08/16 08:45:23;;;;;;;7.53;5.00;;;20.30;99.90;;;;;;5016474;28;20667;-74
2022/08/16 08:47:49;;;;;;;8.87;4.53;;;20.30;99.90;;;;;;5017781;28;20656;-74
2022/08/16 08:50:18;;;;;;;12.30;4.90;;;20.30;99.90;;;;;;5018064;28;20280;-72
2022/08/16 08:52:46;;;;;;;9.23;5.20;;;20.30;99.90;;;;;;5013995;28;20247;-73
2022/08/16 08:55:15;;;;;;;7.50;4.90;;;20.30;99.90;;;;;;5016629;28;20209;-72
2022/08/16 08:57:44;;;;;;;12.13;5.23;;;20.30;99.90;;;;;;5014510;28;20208;-72
2022/08/16 09:00:14;;;;;;;7.97;5.00;;;20.30;99.90;;;;;;5014009;28;20202;-73
2022/08/16 09:02:42;;;;;;;7.07;4.90;;;20.30;99.90;;;;;;5016067;28;20260;-74
2022/08/16 09:05:09;;;;;;;7.40;4.67;;;20.30;99.90;;;;;;5016497;28;20564;-74
2022/08/16 09:07:38;;;;;;;8.93;5.07;;;20.30;99.90;;;;;;5015878;28;20297;-73
2022/08/16 09:10:06;;;;;;;11.63;5.37;;;20.20;99.90;;;;;;5015959;28;20602;-72
2022/08/16 09:12:33;;;;;;;10.97;6.07;;;20.20;99.90;;;;;;5013944;28;20219;-73
2022/08/16 09:15:00;;;;;;;10.10;6.50;;;20.20;99.90;;;;;;5015998;28;20262;-72
2022/08/16 09:17:28;;;;;;;10.67;6.47;;;20.20;99.90;;;;;;5014124;28;20208;-73
2022/08/16 09:19:55;;;;;;;13.63;8.30;;;20.20;99.90;;;;;;5013026;28;20208;-73
2022/08/16 09:22:22;;;;;;;12.57;8.93;;;20.20;99.90;;;;;;5020443;28;20210;-73
2022/08/16 09:24:51;;;;;;;9.00;6.50;;;20.20;99.90;;;;;;5022810;28;20673;-73
2022/08/16 09:27:18;;;;;;;11.63;6.00;;;20.30;99.90;;;;;;5025427;28;20609;-73
2022/08/16 09:29:45;;;;;;;8.67;5.27;;;20.30;99.90;;;;;;5013946;28;20236;-75
2022/08/16 09:32:13;;;;;;;7.70;5.13;;;20.30;99.90;;;;;;5026385;28;20231;-73
2022/08/16 09:34:40;;;;;;;9.27;5.80;;;20.30;99.90;;;;;;5019180;28;20266;-72
2022/08/16 09:37:06;;;;;;;8.33;5.17;;;20.40;99.90;;;;;;5018621;28;20234;-73
2022/08/16 09:39:33;;;;;;;8.07;5.00;;;20.40;99.90;;;;;;5017985;28;20219;-72
2022/08/16 09:42:02;;;;;;;8.63;4.97;;;20.50;99.90;;;;;;5019124;28;20212;-73
2022/08/16 09:44:29;;;;;;;7.57;5.67;;;20.50;99.90;;;;;;5037956;28;20244;-73
2022/08/16 09:46:57;;;;;;;12.47;6.47;;;20.70;99.90;;;;;;5039450;28;20238;-73
2022/08/16 09:49:24;;;;;;;12.77;5.90;;;20.70;99.90;;;;;;5020749;28;20305;-74
2022/08/16 09:51:53;;;;;;;12.33;5.93;;;20.80;99.90;;;;;;5019955;28;20302;-75
2022/08/16 09:54:21;;;;;;;11.50;6.70;;;20.80;99.90;;;;;;5019358;28;20205;-74
2022/08/16 09:56:49;;;;;;;15.43;7.47;;;20.90;99.90;;;;;;4999514;28;20708;-74
2022/08/16 09:59:18;;;;;;;13.80;6.83;;;20.90;99.90;;;;;;5000654;28;20220;-75
2022/08/16 10:01:46;;;;;;;11.57;7.33;;;21.00;99.90;;;;;;5021186;28;20306;-73
2022/08/16 10:04:14;;;;;;;11.57;7.00;;;21.20;99.90;;;;;;5002669;28;20209;-73
2022/08/16 10:06:41;;;;;;;10.33;6.97;;;21.40;99.90;;;;;;5019631;28;20265;-74
2022/08/16 10:09:09;;;;;;;11.67;6.70;;;21.60;99.90;;;;;;5016608;28;20285;-73
2022/08/16 10:14:29;;;;;;;11.87;6.50;;;21.80;99.90;;;;;;5017150;28;20208;-73
2022/08/16 10:16:58;;;;;;;10.80;6.63;;;21.70;99.90;;;;;;5022700;28;20574;-74
2022/08/16 10:19:26;;;;;;;11.90;6.40;;;21.70;99.90;;;;;;5023118;28;20714;-75
2022/08/16 10:21:53;;;;;;;9.73;5.83;;;21.60;99.90;;;;;;5005645;28;20207;-75
2022/08/16 10:24:21;;;;;;;10.37;6.40;;;21.60;99.90;;;;;;4999175;28;20325;-73
2022/08/16 10:26:48;;;;;;;8.87;6.77;;;21.50;99.90;;;;;;5000410;28;20294;-75
2022/08/16 10:29:15;;;;;;;9.50;6.60;;;21.60;99.90;;;;;;5002653;28;20277;-77
2022/08/16 10:31:44;;;;;;;10.37;7.30;;;21.50;99.90;;;;;;4999064;28;20200;-74
2022/08/16 10:34:11;;;;;;;11.57;6.67;;;21.60;99.90;;;;;;5002890;28;20277;-72
2022/08/16 10:36:38;;;;;;;9.80;7.07;;;21.70;99.90;;;;;;5014588;28;20234;-75
2022/08/16 10:39:05;;;;;;;12.17;7.17;;;21.80;99.90;;;;;;5028307;28;20677;-76
2022/08/16 10:41:32;;;;;;;10.97;7.07;;;21.80;99.90;;;;;;5018332;28;20652;-76
2022/08/16 10:43:59;;;;;;;9.13;6.83;;;21.90;99.90;;;;;;5014807;28;20289;-74
2022/08/16 10:46:27;;;;;;;9.53;6.37;;;22.00;99.90;;;;;;5019398;28;20245;-75
2022/08/16 10:48:55;;;;;;;11.63;7.47;;;22.00;99.90;;;;;;5021735;28;20234;-73
2022/08/16 10:51:22;;;;;;;10.57;6.80;;;22.00;99.90;;;;;;5017898;28;20265;-74
2022/08/16 10:53:49;;;;;;;9.83;6.93;;;22.00;99.90;;;;;;5019039;28;20215;-76
2022/08/16 10:56:16;;;;;;;10.47;6.97;;;21.90;99.90;;;;;;5018189;28;20207;-77
2022/08/16 10:58:44;;;;;;;11.27;6.50;;;21.80;99.90;;;;;;5019427;28;20298;-79
2022/08/16 11:01:11;;;;;;;10.50;6.63;;;21.70;99.90;;;;;;5026509;28;20202;-77
2022/08/16 11:03:39;;;;;;;10.13;7.00;;;21.60;99.90;;;;;;5028004;28;20290;-76
2022/08/16 11:06:08;;;;;;;10.93;7.07;;;21.60;99.90;;;;;;5039870;28;20276;-74
2022/08/16 11:08:36;;;;;;;9.83;6.70;;;21.50;99.90;;;;;;5025590;28;20309;-75
2022/08/16 11:11:04;;;;;;;9.20;6.20;;;21.40;99.90;;;;;;5038619;28;20210;-76
2022/08/16 11:13:31;;;;;;;12.70;6.73;;;21.40;99.90;;;;;;5031175;28;20309;-75
2022/08/16 11:15:59;;;;;;;13.13;6.63;;;21.40;99.90;;;;;;5022602;28;20206;-76
2022/08/16 11:18:28;;;;;;;11.20;6.73;;;21.40;99.90;;;;;;5020022;28;20653;-76
2022/08/16 11:20:57;;;;;;;10.00;7.23;;;21.40;99.90;;;;;;5019373;28;20205;-76
2022/08/16 11:23:26;;;;;;;8.87;6.37;;;21.50;99.90;;;;;;5031194;28;20256;-74
2022/08/16 11:25:55;;;;;;;11.20;6.63;;;21.50;99.90;;;;;;5039486;28;20296;-74
2022/08/16 11:28:22;;;;;;;17.03;8.07;;;21.60;99.90;;;;;;5038912;28;20295;-75
2022/08/16 11:30:49;;;;;;;10.80;8.10;;;21.60;99.90;;;;;;5022900;28;20234;-76
2022/08/16 11:33:16;;;;;;;12.10;7.47;;;21.70;99.90;;;;;;5018368;28;20833;-75
2022/08/16 11:35:43;;;;;;;9.93;7.30;;;21.80;99.90;;;;;;5021453;28;20243;-76
2022/08/16 11:38:13;;;;;;;10.30;7.23;;;21.90;99.90;;;;;;5017879;28;20278;-74
2022/08/16 11:40:45;;;;;;;12.20;6.80;;;22.00;99.90;;;;;;5019543;28;20238;-74
2022/08/16 11:43:13;;;;;;;11.27;7.10;;;22.10;99.90;;;;;;5019657;28;20191;-74
2022/08/16 11:45:40;;;;;;;10.83;6.53;;;22.10;99.90;;;;;;5010189;28;20198;-72
2022/08/16 11:48:07;;;;;;;11.07;7.07;;;22.10;99.90;;;;;;5013775;28;20318;-74
2022/08/16 11:50:35;;;;;;;11.53;6.80;;;22.20;99.90;;;;;;5019679;28;20298;-73
2022/08/16 11:53:04;;;;;;;11.30;6.80;;;22.20;99.90;;;;;;5034067;28;20638;-74
2022/08/16 11:55:31;;;;;;;10.93;6.40;;;22.20;99.90;;;;;;5021003;28;20288;-75
2022/08/16 11:58:01;;;;;;;12.37;7.07;;;22.30;99.90;;;;;;5014825;28;20616;-74
2022/08/16 12:00:29;;;;;;;14.70;6.77;;;22.20;99.90;;;;;;5014214;28;20206;-73
2022/08/16 12:02:56;;;;;;;11.57;7.00;;;22.20;99.90;;;;;;5018640;28;20674;-74
2022/08/16 12:05:25;;;;;;;14.97;7.50;;;22.20;99.90;;;;;;5014640;28;20199;-73
2022/08/16 12:07:53;;;;;;;12.53;7.60;;;22.20;99.90;;;;;;5012259;28;20735;-72
2022/08/16 12:10:22;;;;;;;12.40;7.90;;;22.20;99.90;;;;;;5016570;28;20207;-73
2022/08/16 12:12:50;;;;;;;11.97;7.60;;;22.20;99.90;;;;;;5010930;28;20757;-73
2022/08/16 12:15:19;;;;;;;10.43;7.33;;;22.20;99.90;;;;;;5012307;28;20603;-73
2022/08/16 12:17:47;;;;;;;11.90;7.60;;;22.20;99.90;;;;;;5014295;28;20716;-73
2022/08/16 12:20:16;;;;;;;11.30;7.80;;;22.20;99.90;;;;;;5013315;28;20326;-73
2022/08/16 12:22:43;;;;;;;12.47;7.97;;;22.20;99.90;;;;;;5016598;28;20207;-71
2022/08/16 12:25:14;;;;;;;12.67;8.10;;;22.20;99.90;;;;;;5028690;28;20197;-73
2022/08/16 12:27:43;;;;;;;14.53;8.33;;;22.20;99.90;;;;;;5022450;28;20305;-74
2022/08/16 12:30:12;;;;;;;14.00;8.97;;;22.20;99.90;;;;;;5013895;28;20283;-72
2022/08/16 12:32:40;;;;;;;11.77;8.53;;;22.20;99.90;;;;;;5013409;28;20262;-72
2022/08/16 12:35:10;;;;;;;15.50;8.70;;;22.20;99.90;;;;;;5014949;28;20212;-73
2022/08/16 12:37:38;;;;;;;12.60;8.20;;;22.20;99.90;;;;;;5019077;28;20684;-73
2022/08/16 12:40:07;;;;;;;15.83;8.37;;;22.30;99.90;;;;;;5019185;28;20295;-76
2022/08/16 12:42:34;;;;;;;13.40;8.97;;;22.30;99.90;;;;;;5013566;28;20729;-74
2022/08/16 12:45:01;;;;;;;15.23;8.77;;;22.40;99.90;;;;;;5029529;28;20285;-73
2022/08/16 12:50:14;;;;;;;14.83;8.73;;;22.50;99.90;;;;;;5033391;28;20208;-74